Date,TemperatureHighF,TemperatureAvgF,TemperatureLowF,DewpointHighF,DewpointAvgF,DewpointLowF,HumidityHigh,HumidityAvg,HumidityLow,PressureMaxIn,PressureMinIn,WindSpeedMaxMPH,WindSpeedAvgMPH,GustSpeedMaxMPH,PrecipitationSumIn
2013-9-1,91.8,73.9,0.0,31.7,18.3,9.6,12,12,12,26.19,26.13,10,1,10,0.00
2013-9-2,96.1,67.6,0.0,35.5,13.4,5.3,12,12,12,26.16,26.13,27,1,27,0.48
2013-9-3,90.3,70.9,58.5,30.9,15.1,-40.5,12,12,12,26.19,26.13,15,1,15,0.00
2013-9-4,89.6,72.6,60.4,30.0,16.8,-40.5,12,12,12,26.22,26.16,18,2,18,0.00
2013-9-10,83.1,60.8,56.1,25.3,7.9,4.2,12,12,12,26.16,26.13,3,0,6,3.94
2013-9-11,85.8,65.4,0.0,27.4,11.7,-1.6,12,12,12,26.19,26.13,12,1,13,0.00
2013-9-12,87.4,66.8,49.8,28.6,12.4,-40.5,12,12,12,26.19,26.10,15,1,15,0.00
2013-9-13,89.8,68.0,49.3,30.3,13.5,-1.2,12,12,12,26.13,25.99,14,1,14,0.00
2013-9-14,92.8,70.9,52.7,32.8,15.7,1.5,12,12,12,26.02,25.96,9,1,11,0.00
2013-9-15,94.6,72.1,55.0,34.2,16.7,3.4,12,12,12,26.07,26.02,13,1,13,0.00
2013-9-16,95.4,71.5,54.0,34.8,16.2,2.5,12,12,12,26.10,26.05,13,1,13,0.00
2013-9-17,89.8,66.7,50.0,30.3,12.5,-0.6,12,12,12,26.10,25.99,14,1,14,0.00
2013-9-18,84.0,60.5,0.0,25.9,7.8,-8.0,12,12,12,26.05,25.96,10,1,10,0.00
2013-9-19,88.7,64.2,43.5,29.5,10.3,-40.5,12,12,12,26.07,26.02,15,1,17,0.00
2013-9-20,88.5,63.5,46.0,29.6,9.8,-40.5,12,12,12,26.07,26.05,10,1,10,0.00
2013-9-21,82.9,58.9,39.9,25.2,6.4,-8.6,12,12,12,26.10,26.02,9,1,11,0.00
2013-9-22,72.3,58.4,47.5,16.8,5.8,-40.5,12,12,12,26.05,25.99,10,1,10,0.00
2013-9-23,82.4,67.4,44.1,24.6,13.0,-5.3,12,12,12,26.13,26.02,18,5,20,0.00
2013-9-24,86.9,70.1,0.0,28.1,15.6,-1.6,12,12,12,26.19,26.10,9,2,11,0.00
2013-9-25,77.9,56.4,40.6,21.1,4.4,-8.0,12,12,12,26.10,25.93,18,2,18,0.00
2013-9-26,63.9,50.6,0.0,10.3,-0.0,-11.0,12,12,12,26.07,25.93,10,2,11,0.00
2013-9-27,70.7,52.6,0.0,15.5,1.6,-13.0,12,12,12,26.19,26.07,18,3,18,0.00
2013-9-28,78.6,58.0,37.9,21.7,5.5,-40.5,12,12,12,26.28,26.19,16,4,16,0.00
2013-9-29,85.1,58.7,37.0,26.8,6.0,-40.5,12,12,12,26.28,26.19,9,1,9,0.00
2013-9-30,84.7,59.1,39.2,26.4,6.4,-40.5,12,12,12,26.22,26.10,8,1,11,0.00